createdAt,value
2023-12-24T00:01:09.070Z,7.10
2023-12-24T00:03:38.829Z,7.10
2023-12-24T00:06:08.961Z,7.10
2023-12-24T00:08:38.652Z,7.10
2023-12-24T00:11:08.165Z,7.10
2023-12-24T00:13:36.164Z,7.10
2023-12-24T00:16:05.216Z,7.10
2023-12-24T00:18:33.250Z,7.10
2023-12-24T00:21:05.637Z,7.10
2023-12-24T00:23:33.748Z,7.10
2023-12-24T00:26:01.863Z,7.10
2023-12-24T00:28:32.570Z,7.10
2023-12-24T00:31:00.596Z,7.10
2023-12-24T00:33:37.140Z,7.10
2023-12-24T00:36:06.181Z,7.10
2023-12-24T00:38:34.316Z,7.10
2023-12-24T00:41:03.319Z,7.10
2023-12-24T00:43:32.640Z,7.10
2023-12-24T00:48:52.995Z,7.10
2023-12-24T00:51:21.013Z,7.10
2023-12-24T00:53:51.272Z,7.10
2023-12-24T00:56:19.659Z,7.20
2023-12-24T00:58:47.965Z,7.20
2023-12-24T01:01:16.121Z,7.20
2023-12-24T01:03:46.259Z,7.20
2023-12-24T01:06:14.567Z,7.20
2023-12-24T01:08:42.611Z,7.20
2023-12-24T01:11:10.626Z,7.20
2023-12-24T01:13:38.653Z,7.20
2023-12-24T01:16:09.246Z,7.10
2023-12-24T01:18:38.079Z,7.10
2023-12-24T01:21:07.512Z,7.10
2023-12-24T01:23:35.977Z,7.10
2023-12-24T01:26:04.455Z,7.10
2023-12-24T01:28:33.233Z,7.10
2023-12-24T01:31:02.671Z,7.10
2023-12-24T01:33:32.148Z,7.10
2023-12-24T01:36:00.334Z,7.10
2023-12-24T01:38:30.367Z,7.10
2023-12-24T01:40:58.540Z,7.10
2023-12-24T01:43:28.359Z,7.10
2023-12-24T01:45:56.776Z,7.10
2023-12-24T01:48:26.430Z,7.10
2023-12-24T01:50:58.392Z,7.10
2023-12-24T01:53:26.727Z,7.10
2023-12-24T01:55:55.642Z,7.10
2023-12-24T01:58:23.991Z,7.10
2023-12-24T02:00:52.006Z,7.10
2023-12-24T02:03:20.010Z,7.10
2023-12-24T02:05:50.053Z,7.10
2023-12-24T02:08:20.523Z,7.10
2023-12-24T02:10:48.836Z,7.10
2023-12-24T02:13:17.996Z,7.10
2023-12-24T02:15:47.822Z,7.10
2023-12-24T02:18:16.464Z,7.10
2023-12-24T02:20:45.563Z,7.10
2023-12-24T02:23:16.317Z,7.10
2023-12-24T02:25:45.723Z,7.10
2023-12-24T02:28:21.684Z,7.10
2023-12-24T02:30:52.875Z,7.10
2023-12-24T02:33:24.187Z,7.10
2023-12-24T02:35:54.597Z,7.10
2023-12-24T02:38:24.268Z,7.00
2023-12-24T02:40:52.293Z,7.00
2023-12-24T02:43:20.222Z,7.00
2023-12-24T02:45:48.127Z,7.00
2023-12-24T02:48:16.262Z,7.00
2023-12-24T02:50:45.458Z,7.00
2023-12-24T02:53:13.399Z,7.00
2023-12-24T02:55:43.037Z,7.00
2023-12-24T02:58:11.427Z,7.00
2023-12-24T03:00:39.440Z,7.00
2023-12-24T03:03:07.521Z,7.00
2023-12-24T03:05:36.160Z,7.00
2023-12-24T03:08:05.165Z,7.00
2023-12-24T03:10:34.854Z,7.00
2023-12-24T03:13:05.812Z,7.00
2023-12-24T03:15:33.764Z,7.00
2023-12-24T03:18:02.011Z,7.00
2023-12-24T03:20:30.688Z,7.00
2023-12-24T03:22:59.388Z,7.00
2023-12-24T03:25:28.275Z,7.00
2023-12-24T03:27:56.784Z,7.00
2023-12-24T03:30:26.119Z,7.00
2023-12-24T03:32:54.419Z,7.00
2023-12-24T03:35:22.500Z,7.00
2023-12-24T03:37:50.494Z,7.00
2023-12-24T03:40:18.750Z,7.10
2023-12-24T03:42:46.737Z,7.00
2023-12-24T03:45:14.810Z,7.00
2023-12-24T03:47:44.674Z,7.10
2023-12-24T03:50:12.762Z,7.00
2023-12-24T03:52:42.050Z,7.00
2023-12-24T03:55:10.319Z,7.00
2023-12-24T03:57:38.457Z,7.00
2023-12-24T04:00:07.371Z,7.10
2023-12-24T04:02:37.459Z,7.00
2023-12-24T04:05:07.482Z,7.10
2023-12-24T04:07:35.968Z,7.10
2023-12-24T04:10:05.637Z,7.10
2023-12-24T04:12:34.604Z,7.10
2023-12-24T04:15:04.284Z,7.10
2023-12-24T04:17:32.331Z,7.10
2023-12-24T04:20:00.625Z,7.10
2023-12-24T04:22:30.564Z,7.10
2023-12-24T04:24:59.795Z,7.10
2023-12-24T04:27:28.076Z,7.10
2023-12-24T04:29:56.942Z,7.10
2023-12-24T04:32:26.665Z,7.10
2023-12-24T04:34:55.361Z,7.10
2023-12-24T04:37:23.690Z,7.10
2023-12-24T04:39:53.358Z,7.10
2023-12-24T04:42:22.043Z,7.10
2023-12-24T04:44:50.570Z,7.10
2023-12-24T04:47:19.411Z,7.10
2023-12-24T04:49:47.584Z,7.10
2023-12-24T04:52:15.983Z,7.10
2023-12-24T04:54:44.209Z,7.10
2023-12-24T04:57:14.985Z,7.00
2023-12-24T04:59:43.296Z,7.10
2023-12-24T05:02:11.706Z,7.10
2023-12-24T05:04:39.714Z,7.10
2023-12-24T05:07:07.651Z,7.10
2023-12-24T05:09:35.847Z,7.10
2023-12-24T05:12:03.981Z,7.10
2023-12-24T05:14:35.487Z,7.10
2023-12-24T05:17:04.752Z,7.10
2023-12-24T05:19:32.812Z,7.10
2023-12-24T05:22:00.812Z,7.10
2023-12-24T05:24:28.878Z,7.10
2023-12-24T05:26:57.146Z,7.10
2023-12-24T05:29:25.133Z,7.10
2023-12-24T05:31:55.286Z,7.10
2023-12-24T05:34:24.170Z,7.10
2023-12-24T05:36:53.114Z,7.10
2023-12-24T05:39:21.287Z,7.10
2023-12-24T05:41:49.320Z,7.10
2023-12-24T05:44:17.342Z,7.20
2023-12-24T05:46:45.355Z,7.20
2023-12-24T05:49:14.721Z,7.20
2023-12-24T05:51:43.383Z,7.20
2023-12-24T05:54:11.328Z,7.20
2023-12-24T05:56:39.763Z,7.20
2023-12-24T05:59:07.993Z,7.30
2023-12-24T06:01:35.950Z,7.20
2023-12-24T06:04:04.257Z,7.20
2023-12-24T06:06:34.277Z,7.20
2023-12-24T06:09:02.658Z,7.20
2023-12-24T06:11:31.041Z,7.20
2023-12-24T06:13:59.028Z,7.20
2023-12-24T06:16:27.073Z,7.20
2023-12-24T06:18:55.762Z,7.20
2023-12-24T06:21:24.291Z,7.30
2023-12-24T06:23:53.781Z,7.20
2023-12-24T06:26:21.904Z,7.20
2023-12-24T06:28:50.125Z,7.20
2023-12-24T06:31:22.796Z,7.20
2023-12-24T06:33:51.675Z,7.20
2023-12-24T06:36:19.775Z,7.20
2023-12-24T06:38:48.128Z,7.20
2023-12-24T06:41:17.436Z,7.20
2023-12-24T06:43:45.615Z,7.20
2023-12-24T06:46:13.988Z,7.20
2023-12-24T06:48:42.224Z,7.10
2023-12-24T06:51:10.334Z,7.10
2023-12-24T06:53:38.540Z,7.10
2023-12-24T06:56:07.092Z,7.10
2023-12-24T06:58:36.364Z,7.20
2023-12-24T07:01:04.741Z,7.10
2023-12-24T07:03:32.917Z,7.10
2023-12-24T07:06:01.101Z,7.10
2023-12-24T07:08:33.186Z,7.10
2023-12-24T07:11:02.706Z,7.10
2023-12-24T07:13:31.136Z,7.20
2023-12-24T07:18:49.573Z,7.10
2023-12-24T07:21:17.571Z,7.20
2023-12-24T07:23:46.071Z,7.20
2023-12-24T07:26:14.081Z,7.20
2023-12-24T07:28:42.059Z,7.20
2023-12-24T07:31:15.473Z,7.20
2023-12-24T07:33:43.651Z,7.20
2023-12-24T07:36:11.716Z,7.20
2023-12-24T07:38:40.121Z,7.20
2023-12-24T07:41:09.777Z,7.20
2023-12-24T07:43:37.736Z,7.30
2023-12-24T07:46:05.813Z,7.30
2023-12-24T07:48:35.172Z,7.30
2023-12-24T07:51:05.690Z,7.30
2023-12-24T07:53:33.714Z,7.30
2023-12-24T07:56:03.027Z,7.30
2023-12-24T07:58:31.401Z,7.30
2023-12-24T08:00:59.439Z,7.30
2023-12-24T08:03:27.433Z,7.30
2023-12-24T08:05:57.385Z,7.30
2023-12-24T08:08:26.580Z,7.20
2023-12-24T08:10:55.140Z,7.20
2023-12-24T08:13:22.212Z,7.20
2023-12-24T08:15:50.178Z,7.20
2023-12-24T08:18:18.371Z,7.10
2023-12-24T08:20:46.557Z,7.10
2023-12-24T08:23:17.386Z,7.10
2023-12-24T08:25:45.533Z,7.10
2023-12-24T08:28:14.395Z,7.10
2023-12-24T08:30:42.364Z,7.00
2023-12-24T08:33:10.588Z,7.00
2023-12-24T08:35:39.689Z,7.00
2023-12-24T08:38:07.743Z,7.00
2023-12-24T08:40:37.373Z,7.00
2023-12-24T08:43:05.746Z,7.00
2023-12-24T08:45:34.673Z,7.00
2023-12-24T08:48:02.896Z,7.10
2023-12-24T08:50:31.377Z,7.10
2023-12-24T08:52:59.362Z,7.10
2023-12-24T08:55:27.615Z,7.20
2023-12-24T08:57:56.965Z,7.20
2023-12-24T09:00:25.095Z,7.20
2023-12-24T09:02:53.385Z,7.20
2023-12-24T09:05:21.779Z,7.30
2023-12-24T09:07:50.032Z,7.30
2023-12-24T09:10:18.930Z,7.30
2023-12-24T09:12:46.907Z,7.30
2023-12-24T09:15:16.960Z,7.30
2023-12-24T09:17:45.689Z,7.40
2023-12-24T09:20:13.945Z,7.40
2023-12-24T09:22:41.946Z,7.40
2023-12-24T09:25:10.340Z,7.50
2023-12-24T09:27:38.702Z,7.40
2023-12-24T09:30:08.186Z,7.50
2023-12-24T09:32:39.305Z,7.50
2023-12-24T09:35:08.146Z,7.50
2023-12-24T09:37:36.576Z,7.50
2023-12-24T09:40:10.251Z,7.60
2023-12-24T09:42:40.420Z,7.60
2023-12-24T09:45:09.616Z,7.60
2023-12-24T09:47:41.584Z,7.70
2023-12-24T09:50:10.474Z,7.70
2023-12-24T09:52:38.558Z,7.80
2023-12-24T09:55:08.867Z,7.80
2023-12-24T09:57:36.778Z,7.90
2023-12-24T10:00:09.669Z,7.90
2023-12-24T10:02:39.355Z,7.90
2023-12-24T10:05:08.378Z,7.90
2023-12-24T10:07:38.826Z,7.90
2023-12-24T10:10:09.992Z,7.90
2023-12-24T10:12:38.239Z,7.90
2023-12-24T10:15:06.975Z,7.90
2023-12-24T10:17:36.616Z,7.90
2023-12-24T10:20:10.637Z,7.90
2023-12-24T10:22:39.021Z,7.90
2023-12-24T10:25:08.852Z,8.00
2023-12-24T10:27:37.679Z,8.00
2023-12-24T10:30:17.448Z,8.00
2023-12-24T10:32:46.233Z,8.00
2023-12-24T10:35:23.566Z,8.00
2023-12-24T10:37:51.918Z,8.00
2023-12-24T10:40:20.191Z,8.00
2023-12-24T10:42:48.777Z,8.10
2023-12-24T10:45:18.250Z,8.10
2023-12-24T10:47:47.687Z,8.10
2023-12-24T10:50:18.009Z,8.10
2023-12-24T10:52:46.637Z,8.10
2023-12-24T10:55:15.633Z,8.10
2023-12-24T10:57:56.793Z,8.20
2023-12-24T11:00:26.946Z,8.10
2023-12-24T11:02:57.457Z,8.20
2023-12-24T11:05:50.837Z,8.10
2023-12-24T11:08:33.655Z,8.20
2023-12-24T11:11:05.435Z,8.20
2023-12-24T11:13:47.707Z,8.20
2023-12-24T11:16:42.850Z,8.20
2023-12-24T11:19:27.092Z,8.20
2023-12-24T11:22:11.760Z,8.20
2023-12-24T11:24:51.755Z,8.20
2023-12-24T11:27:23.094Z,8.20
2023-12-24T11:29:54.866Z,8.30
2023-12-24T11:32:39.168Z,8.30
2023-12-24T11:35:10.575Z,8.40
2023-12-24T11:37:41.685Z,8.40
2023-12-24T11:40:13.539Z,8.40
2023-12-24T11:42:48.002Z,8.40
2023-12-24T11:45:22.581Z,8.40
2023-12-24T11:47:53.846Z,8.50
2023-12-24T11:50:23.090Z,8.50
2023-12-24T11:52:54.748Z,8.50
2023-12-24T11:55:24.543Z,8.50
2023-12-24T11:57:53.075Z,8.60
2023-12-24T12:00:26.479Z,8.50
2023-12-24T12:02:57.071Z,8.50
2023-12-24T12:05:28.010Z,8.50
2023-12-24T12:07:58.377Z,8.50
2023-12-24T12:10:27.424Z,8.60
2023-12-24T12:12:56.769Z,8.60
2023-12-24T12:15:28.046Z,8.60
2023-12-24T12:17:56.126Z,8.60
2023-12-24T12:20:24.515Z,8.70
2023-12-24T12:22:51.826Z,8.70
2023-12-24T12:25:21.644Z,8.70
2023-12-24T12:27:49.701Z,8.70
2023-12-24T12:30:17.864Z,8.70
2023-12-24T12:32:46.454Z,8.70
2023-12-24T12:35:14.930Z,8.70
2023-12-24T12:37:43.666Z,8.60
2023-12-24T12:40:12.252Z,8.60
2023-12-24T12:42:43.750Z,8.60
2023-12-24T12:45:13.535Z,8.50
2023-12-24T12:47:42.984Z,8.50
2023-12-24T12:50:12.365Z,8.50
2023-12-24T12:52:40.528Z,8.50
2023-12-24T12:55:10.919Z,8.50
2023-12-24T12:57:43.466Z,8.60
2023-12-24T13:00:15.472Z,8.60
2023-12-24T13:02:45.063Z,8.60
2023-12-24T13:05:27.723Z,8.50
2023-12-24T13:07:56.956Z,8.50
2023-12-24T13:10:33.314Z,8.50
2023-12-24T13:13:12.736Z,8.50
2023-12-24T13:15:42.222Z,8.50
2023-12-24T13:18:24.912Z,8.50
2023-12-24T13:20:55.319Z,8.40
2023-12-24T13:23:24.602Z,8.40
2023-12-24T13:25:53.317Z,8.40
2023-12-24T13:28:23.403Z,8.50
2023-12-24T13:30:52.547Z,8.50
2023-12-24T13:33:21.105Z,8.50
2023-12-24T13:35:49.777Z,8.40
2023-12-24T13:38:18.828Z,8.50
2023-12-24T13:40:48.908Z,8.40
2023-12-24T13:43:17.216Z,8.50
2023-12-24T13:45:47.155Z,8.50
2023-12-24T13:48:15.402Z,8.50
2023-12-24T13:50:44.186Z,8.50
2023-12-24T13:53:23.647Z,8.50
2023-12-24T13:56:00.087Z,8.50
2023-12-24T13:58:28.877Z,8.50
2023-12-24T14:00:58.893Z,8.50
2023-12-24T14:03:29.294Z,8.60
2023-12-24T14:05:59.384Z,8.60
2023-12-24T14:08:28.756Z,8.60
2023-12-24T14:10:56.869Z,8.60
2023-12-24T14:13:24.950Z,8.70
2023-12-24T14:15:52.997Z,8.70
2023-12-24T14:18:22.757Z,8.70
2023-12-24T14:20:50.967Z,8.80
2023-12-24T14:23:20.334Z,8.70
2023-12-24T14:25:48.682Z,8.70
2023-12-24T14:28:17.940Z,8.80
2023-12-24T14:30:46.619Z,8.80
2023-12-24T14:33:15.314Z,8.80
2023-12-24T14:35:45.295Z,8.80
2023-12-24T14:38:13.342Z,8.80
2023-12-24T14:40:43.055Z,8.90
2023-12-24T14:43:11.670Z,8.90
2023-12-24T14:45:40.302Z,8.90
2023-12-24T14:48:08.755Z,8.90
2023-12-24T14:50:36.824Z,8.90
2023-12-24T14:53:06.347Z,8.90
2023-12-24T14:55:34.764Z,8.90
2023-12-24T14:58:03.552Z,8.90
2023-12-24T15:00:31.740Z,8.90
2023-12-24T15:02:59.864Z,8.90
2023-12-24T15:05:28.833Z,8.90
2023-12-24T15:07:56.972Z,8.80
2023-12-24T15:10:27.146Z,8.80
2023-12-24T15:12:55.246Z,8.80
2023-12-24T15:15:23.330Z,8.80
2023-12-24T15:17:51.390Z,8.80
2023-12-24T15:20:19.632Z,8.70
2023-12-24T15:22:48.089Z,8.80
2023-12-24T15:25:16.101Z,8.70
2023-12-24T15:27:45.495Z,8.80
2023-12-24T15:30:13.572Z,8.80
2023-12-24T15:32:42.947Z,8.70
2023-12-24T15:35:12.870Z,8.70
2023-12-24T15:37:41.480Z,8.70
2023-12-24T15:40:10.333Z,8.80
2023-12-24T15:42:38.426Z,8.80
2023-12-24T15:45:09.518Z,8.80
2023-12-24T15:47:37.643Z,8.90
2023-12-24T15:50:06.930Z,8.90
2023-12-24T15:52:37.060Z,8.90
2023-12-24T15:55:07.128Z,8.90
2023-12-24T15:57:36.993Z,8.90
2023-12-24T16:00:07.125Z,9.00
2023-12-24T16:02:39.473Z,8.90
2023-12-24T16:05:10.490Z,9.00
2023-12-24T16:07:40.077Z,9.00
2023-12-24T16:10:09.626Z,9.20
2023-12-24T16:12:37.554Z,9.20
2023-12-24T16:15:08.728Z,9.10
2023-12-24T16:17:39.533Z,9.20
2023-12-24T16:20:09.478Z,9.20
2023-12-24T16:22:37.666Z,9.10
2023-12-24T16:25:06.356Z,9.10
2023-12-24T16:27:37.314Z,9.20
2023-12-24T16:30:09.104Z,9.20
2023-12-24T16:32:39.386Z,9.20
2023-12-24T16:35:10.815Z,9.30
2023-12-24T16:37:39.006Z,9.30
2023-12-24T16:40:09.597Z,9.30
2023-12-24T16:42:38.062Z,9.30
2023-12-24T16:45:07.550Z,9.40
2023-12-24T16:47:38.431Z,9.40
2023-12-24T16:50:09.039Z,9.50
2023-12-24T16:52:37.704Z,9.40
2023-12-24T16:55:06.480Z,9.40
2023-12-24T16:57:37.593Z,9.50
2023-12-24T17:00:08.386Z,9.50
2023-12-24T17:02:37.435Z,9.60
2023-12-24T17:05:07.803Z,9.50
2023-12-24T17:07:36.041Z,9.60
2023-12-24T17:10:08.830Z,9.60
2023-12-24T17:12:36.882Z,9.50
2023-12-24T17:15:05.775Z,9.60
2023-12-24T17:17:33.958Z,9.50
2023-12-24T17:20:02.250Z,9.60
2023-12-24T17:22:31.552Z,9.50
2023-12-24T17:24:59.679Z,9.50
2023-12-24T17:27:27.625Z,9.50
2023-12-24T17:29:55.649Z,9.50
2023-12-24T17:32:24.074Z,9.50
2023-12-24T17:34:52.380Z,9.50
2023-12-24T17:37:20.527Z,9.50
2023-12-24T17:39:50.798Z,9.50
2023-12-24T17:42:19.316Z,9.50
2023-12-24T17:44:48.000Z,9.40
2023-12-24T17:47:16.422Z,9.40
2023-12-24T17:49:46.191Z,9.40
2023-12-24T17:52:16.456Z,9.40
2023-12-24T17:54:44.827Z,9.30
2023-12-24T17:57:15.305Z,9.30
2023-12-24T17:59:45.032Z,9.30
2023-12-24T18:02:13.084Z,9.30
2023-12-24T18:04:41.071Z,9.30
2023-12-24T18:07:10.386Z,9.30
2023-12-24T18:09:38.725Z,9.30
2023-12-24T18:12:07.213Z,9.30
2023-12-24T18:14:37.804Z,9.30
2023-12-24T18:17:06.062Z,9.30
2023-12-24T18:19:34.454Z,9.30
2023-12-24T18:22:02.868Z,9.30
2023-12-24T18:24:30.800Z,9.30
2023-12-24T18:26:59.586Z,9.30
2023-12-24T18:29:27.656Z,9.30
2023-12-24T18:31:57.036Z,9.30
2023-12-24T18:34:27.885Z,9.30
2023-12-24T18:36:56.787Z,9.30
2023-12-24T18:39:24.726Z,9.30
2023-12-24T18:41:54.956Z,9.40
2023-12-24T18:44:23.017Z,9.50
2023-12-24T18:46:51.196Z,9.40
2023-12-24T18:49:20.847Z,9.40
2023-12-24T18:51:48.801Z,9.50
2023-12-24T18:54:18.214Z,9.50
2023-12-24T18:56:46.572Z,9.50
2023-12-24T18:59:14.894Z,9.60
2023-12-24T19:01:43.557Z,9.60
2023-12-24T19:04:11.744Z,9.60
2023-12-24T19:06:41.117Z,9.60
2023-12-24T19:09:09.966Z,9.60
2023-12-24T19:11:37.968Z,9.70
2023-12-24T19:14:06.963Z,9.70
2023-12-24T19:16:35.507Z,9.70
2023-12-24T19:19:04.689Z,9.70
2023-12-24T19:21:32.806Z,9.70
2023-12-24T19:24:02.065Z,9.70
2023-12-24T19:26:33.614Z,9.70
2023-12-24T19:29:08.907Z,9.80
2023-12-24T19:31:41.454Z,9.80
2023-12-24T19:34:09.431Z,9.80
2023-12-24T19:36:37.433Z,9.80
2023-12-24T19:39:07.026Z,9.90
2023-12-24T19:41:35.393Z,9.90
2023-12-24T19:44:03.501Z,9.90
2023-12-24T19:46:32.247Z,9.90
2023-12-24T19:49:00.597Z,10.00
2023-12-24T19:51:29.701Z,9.90
2023-12-24T19:53:57.718Z,10.00
2023-12-24T19:56:27.629Z,10.00
2023-12-24T19:58:55.868Z,9.90
2023-12-24T20:01:31.594Z,9.90
2023-12-24T20:04:09.380Z,10.10
2023-12-24T20:06:39.422Z,10.00
2023-12-24T20:09:07.878Z,10.10
2023-12-24T20:11:37.464Z,10.10
2023-12-24T20:14:08.605Z,10.00
2023-12-24T20:16:36.561Z,10.00
2023-12-24T20:19:05.413Z,10.10
2023-12-24T20:21:33.418Z,10.10
2023-12-24T20:24:01.841Z,10.10
2023-12-24T20:26:30.139Z,10.10
2023-12-24T20:28:59.591Z,10.10
2023-12-24T20:31:28.090Z,10.10
2023-12-24T20:33:56.653Z,10.10
2023-12-24T20:36:24.680Z,10.20
2023-12-24T20:38:53.733Z,10.20
2023-12-24T20:41:23.194Z,10.20
2023-12-24T20:43:51.798Z,10.20
2023-12-24T20:46:22.422Z,10.20
2023-12-24T20:48:51.368Z,10.20
2023-12-24T20:51:20.729Z,10.20
2023-12-24T20:53:49.026Z,10.30
2023-12-24T20:56:18.104Z,10.30
2023-12-24T20:58:46.202Z,10.20
2023-12-24T21:01:23.426Z,10.20
2023-12-24T21:03:51.520Z,10.30
2023-12-24T21:06:21.845Z,10.40
2023-12-24T21:08:50.690Z,10.40
2023-12-24T21:11:19.207Z,10.40
2023-12-24T21:13:47.208Z,10.40
2023-12-24T21:16:15.750Z,10.40
2023-12-24T21:18:45.332Z,10.40
2023-12-24T21:21:13.419Z,10.30
2023-12-24T21:23:43.865Z,10.30
2023-12-24T21:26:12.066Z,10.30
2023-12-24T21:28:40.103Z,10.30
2023-12-24T21:31:09.753Z,10.30
2023-12-24T21:33:37.888Z,10.50
2023-12-24T21:36:07.535Z,10.40
2023-12-24T21:38:35.883Z,10.30
2023-12-24T21:41:04.535Z,10.30
2023-12-24T21:43:35.506Z,10.40
2023-12-24T21:46:04.881Z,10.40
2023-12-24T21:48:32.922Z,10.40
2023-12-24T21:51:01.079Z,10.40
2023-12-24T21:53:35.873Z,10.50
2023-12-24T21:56:06.485Z,10.50
2023-12-24T21:58:34.486Z,10.40
2023-12-24T22:01:06.318Z,10.40
2023-12-24T22:03:35.185Z,10.40
2023-12-24T22:06:06.479Z,10.60
2023-12-24T22:08:35.890Z,10.50
2023-12-24T22:11:04.176Z,10.60
2023-12-24T22:13:37.149Z,10.70
2023-12-24T22:16:13.747Z,10.60
2023-12-24T22:18:42.532Z,10.50
2023-12-24T22:21:10.778Z,10.50
2023-12-24T22:23:40.548Z,10.60
2023-12-24T22:26:10.895Z,10.70
2023-12-24T22:28:40.203Z,10.70
2023-12-24T22:31:08.665Z,10.60
2023-12-24T22:33:39.128Z,10.60
2023-12-24T22:36:07.846Z,10.60
2023-12-24T22:38:37.344Z,10.70
2023-12-24T22:41:07.579Z,10.70
2023-12-24T22:43:35.589Z,10.70
2023-12-24T22:46:03.824Z,10.60
2023-12-24T22:48:32.774Z,10.60
2023-12-24T22:51:01.022Z,10.80
2023-12-24T22:53:30.092Z,10.80
2023-12-24T22:55:58.087Z,10.70
2023-12-24T22:58:27.376Z,10.70
2023-12-24T23:00:55.307Z,10.70
2023-12-24T23:03:23.267Z,10.70
2023-12-24T23:05:51.772Z,10.80
2023-12-24T23:08:19.775Z,10.60
2023-12-24T23:10:48.379Z,10.80
2023-12-24T23:13:16.466Z,10.90
2023-12-24T23:15:46.129Z,10.80
2023-12-24T23:18:14.301Z,10.70
2023-12-24T23:20:42.751Z,10.70
2023-12-24T23:23:11.484Z,10.60
2023-12-24T23:25:40.087Z,10.70
2023-12-24T23:28:09.400Z,10.70
2023-12-24T23:30:37.659Z,10.80
2023-12-24T23:33:07.320Z,10.70
2023-12-24T23:35:35.604Z,10.60
2023-12-24T23:38:03.642Z,10.60
2023-12-24T23:40:31.941Z,10.60
2023-12-24T23:42:59.903Z,10.60
2023-12-24T23:45:27.925Z,10.70
2023-12-24T23:47:56.707Z,10.60
2023-12-24T23:50:26.360Z,10.60
2023-12-24T23:52:54.272Z,10.70
2023-12-24T23:55:22.200Z,10.70
2023-12-24T23:57:50.130Z,10.70
